createdAt,value
2022-08-21T00:00:44.602Z,99446.72
2022-08-21T00:04:57.111Z,99459.25
2022-08-21T00:09:05.572Z,99452.13
2022-08-21T00:13:11.700Z,99449.56
2022-08-21T00:17:14.838Z,99438.13
2022-08-21T00:21:18.275Z,99440.13
2022-08-21T00:25:24.362Z,99440.25
2022-08-21T00:29:31.078Z,99431.44
2022-08-21T00:33:34.811Z,99424.44
2022-08-21T00:37:37.920Z,99422.72
2022-08-21T00:41:41.650Z,99418.31
2022-08-21T00:45:46.456Z,99413.09
2022-08-21T00:49:49.911Z,99421.09
2022-08-21T00:53:58.028Z,99421.09
2022-08-21T00:58:06.187Z,99422.16
2022-08-21T01:02:14.441Z,99422.16
2022-08-21T01:06:18.267Z,99425.69
2022-08-21T01:10:24.391Z,99423.81
2022-08-21T01:14:28.438Z,99421.22
2022-08-21T01:18:33.199Z,99409.50
2022-08-21T01:22:37.950Z,99398.81
2022-08-21T01:26:41.915Z,99394.25
2022-08-21T01:30:45.782Z,99392.38
2022-08-21T01:34:51.935Z,99398.63
2022-08-21T01:38:57.868Z,99394.13
2022-08-21T01:43:01.177Z,99394.94
2022-08-21T01:47:08.435Z,99383.31
2022-08-21T01:51:12.769Z,99387.66
2022-08-21T01:55:18.922Z,99388.38
2022-08-21T01:59:23.796Z,99382.06
2022-08-21T02:03:35.340Z,99382.94
2022-08-21T02:07:40.743Z,99378.31
2022-08-21T02:11:45.450Z,99370.47
2022-08-21T02:15:49.015Z,99374.09
2022-08-21T02:19:52.328Z,99362.06
2022-08-21T02:23:55.638Z,99363.22
2022-08-21T02:28:01.937Z,99366.88
2022-08-21T02:32:05.583Z,99367.78
2022-08-21T02:36:10.357Z,99370.53
2022-08-21T02:40:14.206Z,99377.66
2022-08-21T02:44:19.116Z,99378.75
2022-08-21T02:48:25.207Z,99377.06
2022-08-21T02:52:28.312Z,99371.91
2022-08-21T02:56:31.538Z,99376.47
2022-08-21T03:00:37.863Z,99373.84
2022-08-21T03:04:45.996Z,99382.84
2022-08-21T03:08:50.416Z,99380.16
2022-08-21T03:12:53.975Z,99375.91
2022-08-21T03:16:58.561Z,99375.22
2022-08-21T03:21:01.718Z,99376.28
2022-08-21T03:25:06.739Z,99375.50
2022-08-21T03:29:10.173Z,99378.31
2022-08-21T03:33:15.826Z,99380.09
2022-08-21T03:37:19.697Z,99370.38
2022-08-21T03:41:22.996Z,99376.63
2022-08-21T03:45:26.143Z,99384.59
2022-08-21T03:49:30.859Z,99376.53
2022-08-21T03:53:35.043Z,99377.38
2022-08-21T03:57:38.136Z,99382.88
2022-08-21T04:01:42.187Z,99398.00
2022-08-21T04:05:47.290Z,99397.88
2022-08-21T04:09:50.592Z,99396.06
2022-08-21T04:13:53.660Z,99399.47
2022-08-21T04:17:57.090Z,99401.91
2022-08-21T04:22:01.831Z,99401.13
2022-08-21T04:26:07.196Z,99395.84
2022-08-21T04:30:12.004Z,99401.22
2022-08-21T04:34:15.216Z,99410.06
2022-08-21T04:38:20.310Z,99414.41
2022-08-21T04:42:23.582Z,99407.38
2022-08-21T04:46:26.880Z,99404.81
2022-08-21T04:50:33.311Z,99410.16
2022-08-21T04:54:42.326Z,99411.91
2022-08-21T04:58:45.652Z,99412.72
2022-08-21T05:02:50.252Z,99409.00
2022-08-21T05:06:55.881Z,99415.00
2022-08-21T05:11:00.851Z,99411.31
2022-08-21T05:15:04.744Z,99416.38
2022-08-21T05:19:08.536Z,99409.94
2022-08-21T05:23:14.666Z,99411.22
2022-08-21T05:27:19.211Z,99405.38
2022-08-21T05:31:23.491Z,99425.28
2022-08-21T05:35:27.652Z,99415.22
2022-08-21T05:40:21.804Z,99409.63
2022-08-21T05:43:55.198Z,99422.34
2022-08-21T05:47:58.367Z,99421.88
2022-08-21T05:52:01.774Z,99420.66
2022-08-21T05:56:06.123Z,99429.47
2022-08-21T06:00:13.438Z,99428.50
2022-08-21T06:04:17.275Z,99431.16
2022-08-21T06:08:21.724Z,99430.03
2022-08-21T06:12:25.952Z,99435.38
2022-08-21T06:16:31.644Z,99432.75
2022-08-21T06:20:35.039Z,99433.84
2022-08-21T06:24:38.360Z,99433.63
2022-08-21T06:28:42.460Z,99435.38
2022-08-21T06:32:47.076Z,99423.44
2022-08-21T06:36:50.099Z,99432.06
2022-08-21T06:40:53.167Z,99449.72
2022-08-21T06:44:56.790Z,99446.91
2022-08-21T06:49:01.330Z,99441.44
2022-08-21T06:53:07.642Z,99446.63
2022-08-21T06:57:10.809Z,99448.31
2022-08-21T07:01:14.021Z,99448.91
2022-08-21T07:05:18.905Z,99454.00
2022-08-21T07:09:24.701Z,99449.75
2022-08-21T07:13:28.699Z,99449.94
2022-08-21T07:17:31.953Z,99460.75
2022-08-21T07:21:36.942Z,99471.72
2022-08-21T07:25:40.701Z,99467.97
2022-08-21T07:29:45.574Z,99457.25
2022-08-21T07:33:49.251Z,99450.13
2022-08-21T07:37:54.013Z,99453.59
2022-08-21T07:41:57.355Z,99452.56
2022-08-21T07:46:00.684Z,99452.63
2022-08-21T07:50:03.790Z,99461.56
2022-08-21T07:54:09.685Z,99459.66
2022-08-21T07:58:20.136Z,99452.44
2022-08-21T08:02:26.882Z,99448.03
2022-08-21T08:06:30.485Z,99450.13
2022-08-21T08:10:35.187Z,99438.25
2022-08-21T08:14:38.334Z,99437.84
2022-08-21T08:18:43.100Z,99447.91
2022-08-21T08:22:50.024Z,99434.25
2022-08-21T08:26:58.008Z,99448.22
2022-08-21T08:31:02.125Z,99444.25
2022-08-21T08:35:05.615Z,99443.66
2022-08-21T08:39:08.750Z,99451.03
2022-08-21T08:43:15.810Z,99442.63
2022-08-21T08:47:20.645Z,99447.19
2022-08-21T08:51:27.682Z,99448.81
2022-08-21T08:55:35.524Z,99443.44
2022-08-21T08:59:43.863Z,99445.47
2022-08-21T09:03:50.699Z,99439.28
2022-08-21T09:08:15.360Z,99449.81
2022-08-21T09:12:41.794Z,99441.25
2022-08-21T09:16:51.346Z,99442.06
2022-08-21T09:21:10.659Z,99453.72
2022-08-21T09:25:27.092Z,99446.47
2022-08-21T09:29:33.919Z,99419.56
2022-08-21T09:33:38.393Z,99431.44
2022-08-21T09:37:52.763Z,99430.84
2022-08-21T09:42:01.133Z,99422.03
2022-08-21T09:46:08.896Z,99419.75
2022-08-21T09:50:19.194Z,99421.00
2022-08-21T09:54:33.598Z,99414.78
2022-08-21T09:58:38.825Z,99417.50
2022-08-21T10:02:41.915Z,99423.84
2022-08-21T10:06:46.982Z,99415.81
2022-08-21T10:10:56.427Z,99415.03
2022-08-21T10:15:09.070Z,99403.31
2022-08-21T10:19:24.899Z,99418.50
2022-08-21T10:23:44.143Z,99421.25
2022-08-21T10:27:59.515Z,99419.50
2022-08-21T10:32:25.793Z,99422.13
2022-08-21T10:36:39.183Z,99414.03
2022-08-21T10:40:52.177Z,99411.97
2022-08-21T10:45:06.497Z,99409.56
2022-08-21T10:49:21.067Z,99409.25
2022-08-21T10:53:37.802Z,99413.34
2022-08-21T10:57:48.399Z,99419.41
2022-08-21T11:01:59.647Z,99417.66
2022-08-21T11:06:11.070Z,99410.72
2022-08-21T11:10:20.260Z,99412.44
2022-08-21T11:14:32.761Z,99409.41
2022-08-21T11:18:39.875Z,99412.88
2022-08-21T11:22:56.984Z,99401.00
2022-08-21T11:27:08.474Z,99410.31
2022-08-21T11:31:29.142Z,99409.78
2022-08-21T11:35:39.869Z,99395.84
2022-08-21T11:39:54.786Z,99397.63
2022-08-21T11:44:11.160Z,99388.81
2022-08-21T11:48:31.675Z,99392.81
2022-08-21T11:52:40.992Z,99391.47
2022-08-21T11:56:50.513Z,99407.91
2022-08-21T12:00:58.271Z,99412.41
2022-08-21T12:05:08.200Z,99391.59
2022-08-21T12:09:28.226Z,99395.81
2022-08-21T12:13:40.785Z,99404.72
2022-08-21T12:17:56.361Z,99403.22
2022-08-21T12:22:11.481Z,99410.31
2022-08-21T12:26:36.996Z,99412.16
2022-08-21T12:30:42.129Z,99409.59
2022-08-21T12:34:51.521Z,99423.06
2022-08-21T12:38:59.647Z,99410.38
2022-08-21T12:43:04.947Z,99427.22
2022-08-21T12:47:17.382Z,99416.19
2022-08-21T12:51:26.574Z,99428.56
2022-08-21T12:55:33.914Z,99422.88
2022-08-21T12:59:40.618Z,99426.00
2022-08-21T13:03:44.256Z,99417.13
2022-08-21T13:07:49.976Z,99424.28
2022-08-21T13:11:55.481Z,99424.28
2022-08-21T13:16:00.720Z,99426.97
2022-08-21T13:20:08.903Z,99423.97
2022-08-21T13:24:41.329Z,99426.56
2022-08-21T13:28:45.048Z,99432.50
2022-08-21T13:32:52.645Z,99427.53
2022-08-21T13:37:01.075Z,99417.53
2022-08-21T13:41:09.486Z,99429.75
2022-08-21T13:45:21.247Z,99432.50
2022-08-21T13:49:31.405Z,99420.13
2022-08-21T13:53:37.575Z,99432.66
2022-08-21T13:57:41.196Z,99424.16
2022-08-21T14:01:55.727Z,99417.69
2022-08-21T14:06:00.219Z,99414.34
2022-08-21T14:10:07.717Z,99408.84
2022-08-21T14:14:22.316Z,99417.66
2022-08-21T14:18:27.671Z,99413.16
2022-08-21T14:22:34.895Z,99417.34
2022-08-21T14:26:45.325Z,99413.88
2022-08-21T14:30:51.345Z,99412.69
2022-08-21T14:34:58.078Z,99415.28
2022-08-21T14:39:02.824Z,99406.44
2022-08-21T14:43:06.243Z,99409.03
2022-08-21T14:47:10.301Z,99418.91
2022-08-21T14:51:15.346Z,99404.56
2022-08-21T14:55:20.423Z,99411.78
2022-08-21T14:59:24.466Z,99414.59
2022-08-21T15:03:28.178Z,99412.28
2022-08-21T15:07:32.811Z,99420.34
2022-08-21T15:11:42.339Z,99406.00
2022-08-21T15:15:49.145Z,99412.28
2022-08-21T15:19:52.236Z,99415.94
2022-08-21T15:23:56.838Z,99416.66
2022-08-21T15:28:00.592Z,99408.69
2022-08-21T15:32:18.024Z,99415.22
2022-08-21T15:36:21.764Z,99408.19
2022-08-21T15:40:26.748Z,99410.97
2022-08-21T15:44:31.224Z,99415.41
2022-08-21T15:48:34.400Z,99414.63
2022-08-21T15:52:38.199Z,99412.94
2022-08-21T15:56:48.448Z,99412.78
2022-08-21T16:00:51.959Z,99410.09
2022-08-21T16:04:55.580Z,99407.28
2022-08-21T16:08:58.871Z,99401.09
2022-08-21T16:13:08.399Z,99401.00
2022-08-21T16:17:11.750Z,99404.59
2022-08-21T16:21:15.407Z,99399.22
2022-08-21T16:25:19.200Z,99400.16
2022-08-21T16:29:24.904Z,99404.66
2022-08-21T16:33:33.534Z,99399.28
2022-08-21T16:37:36.880Z,99402.84
2022-08-21T16:41:40.635Z,99402.91
2022-08-21T16:45:45.491Z,99401.97
2022-08-21T16:49:51.000Z,99406.78
2022-08-21T16:53:54.154Z,99413.56
2022-08-21T16:57:58.106Z,99402.06
2022-08-21T17:02:03.349Z,99400.38
2022-08-21T17:06:11.640Z,99400.31
2022-08-21T17:10:17.088Z,99403.97
2022-08-21T17:14:22.665Z,99404.09
2022-08-21T17:18:27.935Z,99398.75
2022-08-21T17:22:31.093Z,99396.06
2022-08-21T17:26:34.663Z,99395.28
2022-08-21T17:30:42.856Z,99393.75
2022-08-21T17:34:48.011Z,99391.34
2022-08-21T17:38:51.968Z,99399.38
2022-08-21T17:42:55.065Z,99393.06
2022-08-21T17:46:58.412Z,99407.44
2022-08-21T17:51:03.849Z,99409.22
2022-08-21T17:55:07.913Z,99403.00
2022-08-21T17:59:11.907Z,99399.53
2022-08-21T18:03:18.185Z,99401.72
2022-08-21T18:07:32.809Z,99404.56
2022-08-21T18:11:37.968Z,99399.38
2022-08-21T18:15:44.158Z,99401.44
2022-08-21T18:19:49.176Z,99404.97
2022-08-21T18:23:55.552Z,99412.09
2022-08-21T18:28:08.765Z,99406.00
2022-08-21T18:32:26.813Z,99413.25
2022-08-21T18:36:35.087Z,99414.19
2022-08-21T18:40:45.305Z,99418.59
2022-08-21T18:44:50.836Z,99424.13
2022-08-21T18:48:55.027Z,99436.66
2022-08-21T18:52:59.223Z,99429.50
2022-08-21T18:57:05.461Z,99434.94
2022-08-21T19:01:08.938Z,99435.88
2022-08-21T19:05:14.944Z,99437.69
2022-08-21T19:09:20.202Z,99439.56
2022-08-21T19:13:28.452Z,99440.63
2022-08-21T19:17:31.994Z,99440.63
2022-08-21T19:21:35.419Z,99436.16
2022-08-21T19:25:41.933Z,99436.16
2022-08-21T19:29:46.631Z,99440.63
2022-08-21T19:33:55.091Z,99446.94
2022-08-21T19:38:00.886Z,99447.03
2022-08-21T19:42:04.052Z,99460.78
2022-08-21T19:46:09.016Z,99461.50
2022-08-21T19:50:18.092Z,99461.25
2022-08-21T19:54:27.822Z,99453.59
2022-08-21T19:58:36.373Z,99457.34
2022-08-21T20:02:47.894Z,99457.63
2022-08-21T20:06:51.535Z,99453.28
2022-08-21T20:10:58.089Z,99462.53
2022-08-21T20:15:03.282Z,99451.34
2022-08-21T20:19:13.792Z,99449.16
2022-08-21T20:23:18.450Z,99460.09
2022-08-21T20:31:56.727Z,99469.59
2022-08-21T20:36:01.465Z,99471.06
2022-08-21T20:40:10.069Z,99460.06
2022-08-21T20:44:14.874Z,99457.63
2022-08-21T20:48:23.806Z,99457.03
2022-08-21T20:52:28.779Z,99462.84
2022-08-21T20:56:42.262Z,99455.25
2022-08-21T21:00:46.044Z,99461.00
2022-08-21T21:04:58.720Z,99462.25
2022-08-21T21:09:10.774Z,99459.88
2022-08-21T21:13:21.044Z,99457.69
2022-08-21T21:17:29.438Z,99450.19
2022-08-21T21:21:36.868Z,99455.75
2022-08-21T21:25:53.942Z,99444.31
2022-08-21T21:30:03.669Z,99446.25
2022-08-21T21:34:08.926Z,99443.59
2022-08-21T21:38:26.131Z,99440.22
2022-08-21T21:42:55.594Z,99430.78
2022-08-21T21:47:03.815Z,99439.84
2022-08-21T21:51:15.764Z,99439.06
2022-08-21T21:55:33.674Z,99434.75
2022-08-21T21:59:54.906Z,99427.88
2022-08-21T22:04:03.702Z,99435.38
2022-08-21T22:08:15.192Z,99422.25
2022-08-21T22:12:42.197Z,99433.03
2022-08-21T22:16:54.849Z,99431.31
2022-08-21T22:21:03.682Z,99430.50
2022-08-21T22:25:16.586Z,99422.63
2022-08-21T22:29:24.056Z,99426.44
2022-08-21T22:33:30.500Z,99421.31
2022-08-21T22:37:38.726Z,99431.34
2022-08-21T22:41:44.656Z,99424.44
2022-08-21T22:46:00.719Z,99419.31
2022-08-21T22:50:08.447Z,99414.06
2022-08-21T22:54:22.943Z,99412.41
2022-08-21T22:58:29.426Z,99407.09
2022-08-21T23:02:39.199Z,99410.63
2022-08-21T23:06:46.654Z,99394.50
2022-08-21T23:10:50.688Z,99397.19
2022-08-21T23:14:54.928Z,99394.63
2022-08-21T23:19:08.312Z,99399.16
2022-08-21T23:23:23.407Z,99388.53
2022-08-21T23:27:38.203Z,99397.63
2022-08-21T23:31:47.894Z,99401.34
2022-08-21T23:36:21.254Z,99391.53
2022-08-21T23:49:49.497Z,99395.00
2022-08-21T23:54:09.946Z,99387.09
2022-08-21T23:58:28.982Z,99384.53
